createdAt,value
2022-11-19T00:01:09.730Z,5.74
2022-11-19T00:03:37.641Z,5.75
2022-11-19T00:06:07.606Z,5.76
2022-11-19T00:08:34.502Z,5.71
2022-11-19T00:11:11.734Z,5.67
2022-11-19T00:13:39.769Z,5.70
2022-11-19T00:16:14.439Z,5.71
2022-11-19T00:18:41.242Z,5.72
2022-11-19T00:21:10.736Z,5.69
2022-11-19T00:23:37.910Z,5.62
2022-11-19T00:26:11.795Z,5.63
2022-11-19T00:28:40.464Z,5.62
2022-11-19T00:31:12.109Z,5.58
2022-11-19T00:33:40.080Z,5.56
2022-11-19T00:36:11.945Z,5.58
2022-11-19T00:38:38.783Z,5.58
2022-11-19T00:41:06.283Z,5.55
2022-11-19T00:44:13.326Z,5.55
2022-11-19T00:46:40.291Z,5.56
2022-11-19T00:49:08.016Z,5.57
2022-11-19T00:51:34.584Z,5.55
2022-11-19T00:54:01.280Z,5.55
2022-11-19T00:56:28.621Z,5.55
2022-11-19T00:58:56.153Z,5.55
2022-11-19T01:01:25.024Z,5.55
2022-11-19T01:03:52.203Z,5.53
2022-11-19T01:06:21.116Z,5.51
2022-11-19T01:08:49.277Z,5.48
2022-11-19T01:11:20.158Z,5.48
2022-11-19T01:13:47.006Z,5.43
2022-11-19T01:16:18.207Z,5.45
2022-11-19T01:18:47.141Z,5.43
2022-11-19T01:21:15.027Z,5.43
2022-11-19T01:23:43.047Z,5.43
2022-11-19T01:26:10.470Z,5.43
2022-11-19T01:28:37.646Z,5.38
2022-11-19T01:31:09.270Z,5.37
2022-11-19T01:33:37.779Z,5.35
2022-11-19T01:36:08.149Z,5.36
2022-11-19T01:38:34.751Z,5.36
2022-11-19T01:41:02.554Z,5.35
2022-11-19T01:43:42.730Z,5.32
2022-11-19T01:46:11.400Z,5.31
2022-11-19T01:48:45.647Z,5.30
2022-11-19T01:51:17.216Z,5.32
2022-11-19T01:53:45.906Z,5.36
2022-11-19T01:56:13.237Z,5.37
2022-11-19T01:58:44.476Z,5.33
2022-11-19T02:01:11.450Z,5.31
2022-11-19T02:03:39.603Z,5.34
2022-11-19T02:06:07.738Z,5.31
2022-11-19T02:08:38.947Z,5.23
2022-11-19T02:11:10.681Z,5.19
2022-11-19T02:13:44.201Z,5.14
2022-11-19T02:16:21.336Z,5.17
2022-11-19T02:18:56.600Z,5.17
2022-11-19T02:21:38.409Z,5.18
2022-11-19T02:24:25.056Z,5.17
2022-11-19T02:27:20.205Z,5.14
2022-11-19T02:30:04.969Z,5.14
2022-11-19T02:32:36.009Z,5.11
2022-11-19T02:35:15.946Z,5.09
2022-11-19T02:37:47.209Z,5.07
2022-11-19T02:40:26.553Z,5.02
2022-11-19T02:43:30.502Z,4.99
2022-11-19T02:46:08.633Z,4.89
2022-11-19T02:48:39.115Z,4.90
2022-11-19T02:51:07.528Z,4.90
2022-11-19T02:53:34.117Z,4.89
2022-11-19T02:56:12.353Z,4.87
2022-11-19T02:59:01.171Z,4.87
2022-11-19T03:01:49.514Z,4.79
2022-11-19T03:04:30.216Z,4.79
2022-11-19T03:07:01.696Z,4.75
2022-11-19T03:09:30.510Z,4.74
2022-11-19T03:12:08.509Z,4.71
2022-11-19T03:15:13.926Z,4.70
2022-11-19T03:17:53.721Z,4.75
2022-11-19T03:20:26.783Z,4.76
2022-11-19T03:23:00.278Z,4.75
2022-11-19T03:25:34.421Z,4.69
2022-11-19T03:28:05.102Z,4.68
2022-11-19T03:30:32.578Z,4.69
2022-11-19T03:33:08.499Z,4.65
2022-11-19T03:35:42.459Z,4.60
2022-11-19T03:38:14.895Z,4.55
2022-11-19T03:40:43.252Z,4.52
2022-11-19T03:43:13.256Z,4.54
2022-11-19T03:45:44.280Z,4.52
2022-11-19T03:48:14.837Z,4.50
2022-11-19T03:50:58.049Z,4.51
2022-11-19T03:53:25.002Z,4.45
2022-11-19T03:55:58.432Z,4.47
2022-11-19T03:58:26.786Z,4.47
2022-11-19T04:00:53.554Z,4.44
2022-11-19T04:03:21.512Z,4.40
2022-11-19T04:05:48.263Z,4.36
2022-11-19T04:08:14.969Z,4.32
2022-11-19T04:10:41.492Z,4.31
2022-11-19T04:13:07.955Z,4.32
2022-11-19T04:15:34.399Z,4.30
2022-11-19T04:18:00.889Z,4.31
2022-11-19T04:20:27.481Z,4.29
2022-11-19T04:22:54.018Z,4.29
2022-11-19T04:25:20.650Z,4.25
2022-11-19T04:27:47.222Z,4.22
2022-11-19T04:30:14.855Z,4.24
2022-11-19T04:32:42.502Z,4.22
2022-11-19T04:35:09.909Z,4.19
2022-11-19T04:37:36.574Z,4.16
2022-11-19T04:40:03.808Z,4.15
2022-11-19T04:42:30.368Z,4.12
2022-11-19T04:44:56.928Z,4.12
2022-11-19T04:47:23.505Z,4.16
2022-11-19T04:49:50.063Z,4.17
2022-11-19T04:52:16.654Z,4.09
2022-11-19T04:54:43.147Z,4.12
2022-11-19T04:57:09.629Z,4.14
2022-11-19T04:59:36.136Z,4.13
2022-11-19T05:02:02.641Z,4.10
2022-11-19T05:04:29.183Z,4.09
2022-11-19T05:06:55.737Z,4.11
2022-11-19T05:09:22.514Z,4.09
2022-11-19T05:11:49.126Z,4.08
2022-11-19T05:14:15.620Z,4.05
2022-11-19T05:16:42.131Z,4.06
2022-11-19T05:19:08.696Z,4.05
2022-11-19T05:21:35.249Z,4.05
2022-11-19T05:24:01.754Z,4.03
2022-11-19T05:26:28.287Z,3.97
2022-11-19T05:28:54.842Z,3.94
2022-11-19T05:31:21.346Z,3.94
2022-11-19T05:33:47.851Z,3.90
2022-11-19T05:36:14.421Z,3.83
2022-11-19T05:38:41.237Z,3.80
2022-11-19T05:41:07.887Z,3.87
2022-11-19T05:43:34.517Z,3.83
2022-11-19T05:46:02.443Z,3.82
2022-11-19T05:48:30.130Z,3.78
2022-11-19T05:50:56.704Z,3.75
2022-11-19T05:53:23.250Z,3.76
2022-11-19T05:55:49.732Z,3.68
2022-11-19T05:58:16.229Z,3.69
2022-11-19T06:00:42.878Z,3.67
2022-11-19T06:03:10.488Z,3.69
2022-11-19T06:05:40.381Z,3.70
2022-11-19T06:08:07.286Z,3.67
2022-11-19T06:10:33.862Z,3.68
2022-11-19T06:13:00.404Z,3.61
2022-11-19T06:15:26.937Z,3.59
2022-11-19T06:17:53.452Z,3.59
2022-11-19T06:20:20.052Z,3.53
2022-11-19T06:22:46.600Z,3.53
2022-11-19T06:25:13.832Z,3.52
2022-11-19T06:27:40.364Z,3.48
2022-11-19T06:30:07.807Z,3.51
2022-11-19T06:32:34.405Z,3.50
2022-11-19T06:35:00.992Z,3.46
2022-11-19T06:37:27.520Z,3.37
2022-11-19T06:39:55.596Z,3.37
2022-11-19T06:42:40.875Z,3.40
2022-11-19T06:45:10.792Z,3.33
2022-11-19T06:47:38.758Z,3.32
2022-11-19T06:50:07.717Z,3.32
2022-11-19T06:52:34.515Z,3.30
2022-11-19T06:55:01.109Z,3.32
2022-11-19T06:57:27.658Z,3.29
2022-11-19T06:59:54.192Z,3.26
2022-11-19T07:02:21.788Z,3.28
2022-11-19T07:04:48.768Z,3.28
2022-11-19T07:07:15.334Z,3.26
2022-11-19T07:09:41.852Z,3.26
2022-11-19T07:12:09.046Z,3.28
2022-11-19T07:14:35.956Z,3.27
2022-11-19T07:17:02.813Z,3.25
2022-11-19T07:19:29.294Z,3.24
2022-11-19T07:21:55.853Z,3.26
2022-11-19T07:24:22.491Z,3.23
2022-11-19T07:26:49.025Z,3.20
2022-11-19T07:29:16.116Z,3.22
2022-11-19T07:31:42.727Z,3.20
2022-11-19T07:34:10.546Z,3.19
2022-11-19T07:36:37.926Z,3.18
2022-11-19T07:39:05.401Z,3.14
2022-11-19T07:41:50.511Z,3.11
2022-11-19T07:44:17.074Z,3.12
2022-11-19T07:46:43.673Z,3.14
2022-11-19T07:49:10.381Z,3.17
2022-11-19T07:51:37.102Z,3.15
2022-11-19T07:54:04.118Z,3.09
2022-11-19T07:56:30.625Z,3.09
2022-11-19T07:59:00.055Z,3.04
2022-11-19T08:01:27.061Z,2.94
2022-11-19T08:03:56.525Z,3.02
2022-11-19T08:06:27.128Z,3.08
2022-11-19T08:08:56.225Z,3.04
2022-11-19T08:11:23.505Z,3.05
2022-11-19T08:13:51.557Z,3.07
2022-11-19T08:16:37.265Z,3.07
2022-11-19T08:19:07.798Z,3.05
2022-11-19T08:21:34.804Z,3.01
2022-11-19T08:24:04.553Z,3.01
2022-11-19T08:26:31.347Z,2.95
2022-11-19T08:28:58.009Z,2.89
2022-11-19T08:31:24.595Z,2.86
2022-11-19T08:33:51.114Z,2.86
2022-11-19T08:36:17.627Z,2.86
2022-11-19T08:38:44.191Z,2.85
2022-11-19T08:41:29.239Z,2.83
2022-11-19T08:43:55.712Z,2.80
2022-11-19T08:46:22.220Z,2.82
2022-11-19T08:48:48.738Z,2.83
2022-11-19T08:51:16.478Z,2.81
2022-11-19T08:53:43.004Z,2.86
2022-11-19T08:56:11.774Z,2.81
2022-11-19T08:58:41.895Z,2.86
2022-11-19T09:01:11.348Z,2.94
2022-11-19T09:03:38.500Z,2.98
2022-11-19T09:06:05.890Z,2.97
2022-11-19T09:08:32.949Z,2.99
2022-11-19T09:10:59.479Z,2.93
2022-11-19T09:13:26.360Z,2.89
2022-11-19T09:15:52.998Z,2.88
2022-11-19T09:18:19.560Z,2.89
2022-11-19T09:20:46.149Z,2.82
2022-11-19T09:23:12.726Z,2.84
2022-11-19T09:25:39.223Z,2.83
2022-11-19T09:28:05.756Z,2.84
2022-11-19T09:30:32.297Z,2.85
2022-11-19T09:33:00.141Z,2.85
2022-11-19T09:35:26.756Z,2.86
2022-11-19T09:37:53.296Z,2.85
2022-11-19T09:40:21.749Z,2.82
2022-11-19T09:43:17.409Z,2.81
2022-11-19T09:46:10.684Z,2.82
2022-11-19T09:48:39.311Z,2.87
2022-11-19T09:51:18.490Z,2.87
2022-11-19T09:53:52.509Z,2.86
2022-11-19T09:56:27.571Z,2.86
2022-11-19T09:58:56.769Z,2.83
2022-11-19T10:01:23.409Z,2.86
2022-11-19T10:03:53.464Z,2.86
2022-11-19T10:06:25.806Z,2.91
2022-11-19T10:09:10.589Z,2.90
2022-11-19T10:11:45.517Z,2.91
2022-11-19T10:14:39.622Z,2.92
2022-11-19T10:17:33.899Z,2.88
2022-11-19T10:20:18.834Z,2.94
2022-11-19T10:22:57.516Z,2.97
2022-11-19T10:25:30.518Z,3.02
2022-11-19T10:28:12.865Z,3.06
2022-11-19T10:30:41.341Z,3.04
2022-11-19T10:33:20.114Z,2.98
2022-11-19T10:35:51.622Z,3.02
2022-11-19T10:38:23.664Z,3.06
2022-11-19T10:40:58.166Z,3.16
2022-11-19T10:43:46.359Z,3.21
2022-11-19T10:46:17.039Z,3.28
2022-11-19T10:48:47.823Z,3.31
2022-11-19T10:51:24.237Z,3.28
2022-11-19T10:53:54.648Z,3.30
2022-11-19T10:56:24.574Z,3.28
2022-11-19T10:58:56.712Z,3.28
2022-11-19T11:01:37.576Z,3.29
2022-11-19T11:04:20.598Z,3.30
2022-11-19T11:06:55.647Z,3.24
2022-11-19T11:09:31.891Z,3.26
2022-11-19T11:12:22.885Z,3.29
2022-11-19T11:14:52.567Z,3.32
2022-11-19T11:17:27.214Z,3.33
2022-11-19T11:20:00.965Z,3.27
2022-11-19T11:22:28.643Z,3.30
2022-11-19T11:24:56.381Z,3.32
2022-11-19T11:27:35.960Z,3.33
2022-11-19T11:30:07.003Z,3.30
2022-11-19T11:33:19.916Z,3.36
2022-11-19T11:35:46.602Z,3.46
2022-11-19T11:38:14.343Z,3.47
2022-11-19T11:40:41.156Z,3.50
2022-11-19T11:43:17.823Z,3.51
2022-11-19T11:45:44.404Z,3.49
2022-11-19T11:48:20.768Z,3.50
2022-11-19T11:50:47.773Z,3.53
2022-11-19T11:53:17.158Z,3.53
2022-11-19T11:55:43.784Z,3.53
2022-11-19T11:58:28.415Z,3.52
2022-11-19T12:01:15.408Z,3.55
2022-11-19T12:03:55.149Z,3.56
2022-11-19T12:06:26.005Z,3.58
2022-11-19T12:09:08.755Z,3.62
2022-11-19T12:11:55.351Z,3.63
2022-11-19T12:14:25.545Z,3.61
2022-11-19T12:17:09.632Z,3.64
2022-11-19T12:19:56.707Z,3.64
2022-11-19T12:25:21.764Z,3.65
2022-11-19T12:28:06.378Z,3.68
2022-11-19T12:30:45.999Z,3.73
2022-11-19T12:33:24.335Z,3.75
2022-11-19T12:36:11.102Z,3.76
2022-11-19T12:38:58.649Z,3.76
2022-11-19T12:41:34.473Z,3.78
2022-11-19T12:44:03.862Z,3.78
2022-11-19T12:46:37.717Z,3.81
2022-11-19T12:49:13.343Z,3.83
2022-11-19T12:51:51.951Z,3.84
2022-11-19T12:54:35.009Z,3.90
2022-11-19T12:57:17.499Z,3.92
2022-11-19T12:59:54.249Z,3.90
2022-11-19T13:02:34.883Z,3.89
2022-11-19T13:05:15.829Z,3.87
2022-11-19T13:07:52.838Z,3.87
2022-11-19T13:10:25.268Z,3.94
2022-11-19T13:12:55.819Z,3.98
2022-11-19T13:15:28.811Z,3.97
2022-11-19T13:17:59.989Z,3.97
2022-11-19T13:20:31.528Z,3.99
2022-11-19T13:23:03.082Z,4.02
2022-11-19T13:25:35.248Z,4.02
2022-11-19T13:28:07.789Z,4.03
2022-11-19T13:30:35.485Z,4.00
2022-11-19T13:33:20.575Z,4.00
2022-11-19T13:35:59.868Z,4.03
2022-11-19T13:38:38.471Z,4.03
2022-11-19T13:41:13.226Z,4.00
2022-11-19T13:44:00.287Z,3.95
2022-11-19T13:46:34.794Z,3.94
2022-11-19T13:49:17.320Z,3.98
2022-11-19T13:51:49.688Z,3.98
2022-11-19T13:54:26.375Z,3.97
2022-11-19T13:56:57.017Z,3.95
2022-11-19T13:59:34.087Z,3.96
2022-11-19T14:02:31.345Z,3.93
2022-11-19T14:05:06.016Z,3.93
2022-11-19T14:08:06.102Z,3.91
2022-11-19T14:10:41.782Z,3.92
2022-11-19T14:14:06.955Z,3.98
2022-11-19T14:17:07.272Z,3.95
2022-11-19T14:20:07.367Z,3.90
2022-11-19T14:22:59.366Z,3.89
2022-11-19T14:25:57.633Z,3.88
2022-11-19T14:28:41.783Z,3.85
2022-11-19T14:31:08.591Z,3.83
2022-11-19T14:33:59.876Z,3.82
2022-11-19T14:36:42.858Z,3.78
2022-11-19T14:39:22.295Z,3.80
2022-11-19T14:42:15.819Z,3.77
2022-11-19T14:44:44.630Z,3.75
2022-11-19T14:47:18.139Z,3.72
2022-11-19T14:49:47.688Z,3.71
2022-11-19T14:52:21.558Z,3.69
2022-11-19T14:54:55.288Z,3.68
2022-11-19T14:57:28.547Z,3.63
2022-11-19T15:00:07.822Z,3.62
2022-11-19T15:02:39.659Z,3.59
2022-11-19T15:05:28.198Z,3.58
2022-11-19T15:08:20.215Z,3.57
2022-11-19T15:11:01.936Z,3.56
2022-11-19T15:13:30.028Z,3.54
2022-11-19T15:16:06.237Z,3.50
2022-11-19T15:18:43.280Z,3.47
2022-11-19T15:21:34.561Z,3.44
2022-11-19T15:24:08.327Z,3.39
2022-11-19T15:27:04.656Z,3.36
2022-11-19T15:30:10.308Z,3.32
2022-11-19T15:32:54.985Z,3.28
2022-11-19T15:35:55.744Z,3.24
2022-11-19T15:38:22.550Z,3.20
2022-11-19T15:40:53.280Z,3.17
2022-11-19T15:43:26.547Z,3.12
2022-11-19T15:45:57.359Z,3.09
2022-11-19T15:48:41.651Z,3.06
2022-11-19T15:51:14.052Z,3.01
2022-11-19T15:53:59.529Z,2.99
2022-11-19T15:56:29.008Z,3.01
2022-11-19T15:58:55.736Z,2.96
2022-11-19T16:01:22.644Z,2.94
2022-11-19T16:03:51.820Z,2.89
2022-11-19T16:06:23.769Z,2.85
2022-11-19T16:08:54.481Z,2.82
2022-11-19T16:11:46.172Z,2.77
2022-11-19T16:14:41.394Z,2.69
2022-11-19T16:17:43.211Z,2.57
2022-11-19T16:20:10.415Z,2.52
2022-11-19T16:22:43.901Z,2.41
2022-11-19T16:25:24.923Z,2.33
2022-11-19T16:27:57.483Z,2.27
2022-11-19T16:33:19.448Z,2.18
2022-11-19T16:41:57.928Z,2.01
2022-11-19T16:44:29.280Z,1.98
2022-11-19T16:47:36.305Z,1.95
2022-11-19T16:50:32.300Z,1.89
2022-11-19T16:53:30.475Z,1.84
2022-11-19T16:56:26.746Z,1.79
2022-11-19T16:59:37.677Z,1.76
2022-11-19T17:02:54.204Z,1.75
2022-11-19T17:54:41.285Z,1.24
2022-11-19T17:57:08.612Z,1.22
2022-11-19T17:59:35.477Z,1.22
2022-11-19T18:02:02.843Z,1.23
2022-11-19T18:04:32.958Z,1.24
2022-11-19T18:07:00.724Z,1.21
2022-11-19T18:09:29.873Z,1.15
2022-11-19T18:12:00.450Z,1.13
2022-11-19T18:14:27.280Z,1.10
2022-11-19T18:26:28.854Z,0.97
2022-11-19T18:28:56.709Z,0.97
2022-11-19T18:31:43.402Z,0.99
2022-11-19T18:37:05.307Z,1.00
2022-11-19T18:40:11.463Z,0.99
2022-11-19T18:42:50.523Z,1.00
2022-11-19T18:45:22.990Z,1.00
2022-11-19T18:47:54.747Z,1.00
2022-11-19T18:50:36.145Z,0.98
2022-11-19T18:53:04.618Z,0.97
2022-11-19T18:55:31.342Z,0.96
2022-11-19T18:57:57.991Z,0.94
2022-11-19T19:00:24.627Z,0.90
2022-11-19T19:02:51.316Z,0.91
2022-11-19T19:05:18.940Z,0.91
2022-11-19T19:07:45.491Z,0.93
2022-11-19T19:10:12.453Z,0.91
2022-11-19T19:12:39.051Z,0.88
2022-11-19T19:15:06.056Z,0.86
2022-11-19T19:17:32.693Z,0.86
2022-11-19T19:19:59.385Z,0.86
2022-11-19T19:22:27.067Z,0.83
2022-11-19T19:24:57.959Z,0.82
2022-11-19T19:27:25.081Z,0.79
2022-11-19T19:29:51.653Z,0.80
2022-11-19T19:32:18.175Z,0.80
2022-11-19T19:34:44.655Z,0.79
2022-11-19T19:37:11.329Z,0.81
2022-11-19T19:39:38.026Z,0.75
2022-11-19T19:44:58.602Z,0.66
2022-11-19T19:47:25.232Z,0.62
2022-11-19T19:49:51.868Z,0.58
2022-11-19T19:52:18.693Z,0.52
2022-11-19T19:54:46.475Z,0.50
2022-11-19T19:57:13.085Z,0.45
2022-11-19T19:59:39.723Z,0.40
2022-11-19T20:02:06.545Z,0.38
2022-11-19T20:04:33.209Z,0.37
2022-11-19T20:07:01.048Z,0.36
2022-11-19T20:09:27.909Z,0.36
2022-11-19T20:11:54.815Z,0.38
2022-11-19T20:14:21.389Z,0.43
2022-11-19T20:16:47.946Z,0.43
2022-11-19T20:19:15.080Z,0.44
2022-11-19T20:21:41.983Z,0.40
2022-11-19T20:24:12.079Z,0.41
2022-11-19T20:26:40.297Z,0.40
2022-11-19T20:29:07.614Z,0.38
2022-11-19T20:31:34.771Z,0.37
2022-11-19T20:34:04.012Z,0.32
2022-11-19T20:36:33.209Z,0.26
2022-11-19T20:39:00.478Z,0.22
2022-11-19T20:41:47.012Z,0.21
2022-11-19T20:44:21.798Z,0.17
2022-11-19T20:46:50.637Z,0.16
2022-11-19T20:49:19.516Z,0.16
2022-11-19T20:51:47.765Z,0.16
2022-11-19T20:54:14.904Z,0.16
2022-11-19T20:56:41.727Z,0.12
2022-11-19T20:59:08.800Z,0.10
2022-11-19T21:01:35.987Z,0.10
2022-11-19T21:04:02.671Z,0.09
2022-11-19T21:06:29.240Z,0.04
2022-11-19T21:08:56.577Z,0.01
2022-11-19T21:11:23.288Z,-0.01
2022-11-19T21:13:50.806Z,-0.06
2022-11-19T21:16:22.794Z,-0.06
2022-11-19T21:18:50.102Z,-0.07
2022-11-19T21:21:18.765Z,-0.09
2022-11-19T21:23:45.829Z,-0.12
2022-11-19T21:26:17.361Z,-0.13
2022-11-19T21:28:46.879Z,-0.11
2022-11-19T21:31:15.649Z,-0.10
2022-11-19T21:33:43.026Z,-0.08
2022-11-19T21:36:09.945Z,-0.11
2022-11-19T21:38:37.580Z,-0.10
2022-11-19T21:41:04.677Z,-0.12
2022-11-19T21:43:32.399Z,-0.12
2022-11-19T21:45:58.905Z,-0.11
2022-11-19T21:48:25.625Z,-0.11
2022-11-19T21:50:54.026Z,-0.11
2022-11-19T21:53:22.042Z,-0.13
2022-11-19T21:55:50.015Z,-0.17
2022-11-19T21:58:16.785Z,-0.22
2022-11-19T22:00:45.600Z,-0.27
2022-11-19T22:03:12.400Z,-0.27
2022-11-19T22:05:38.864Z,-0.29
2022-11-19T22:08:05.435Z,-0.29
2022-11-19T22:10:32.014Z,-0.29
2022-11-19T22:12:58.910Z,-0.31
2022-11-19T22:15:26.953Z,-0.32
2022-11-19T22:17:53.754Z,-0.33
2022-11-19T22:20:20.302Z,-0.35
2022-11-19T22:22:47.992Z,-0.36
2022-11-19T22:25:14.698Z,-0.40
2022-11-19T22:27:41.888Z,-0.43
2022-11-19T22:30:11.155Z,-0.44
2022-11-19T22:32:37.657Z,-0.47
2022-11-19T22:35:04.932Z,-0.46
2022-11-19T22:37:32.890Z,-0.45
2022-11-19T22:39:59.529Z,-0.47
2022-11-19T22:42:27.342Z,-0.48
2022-11-19T22:44:53.866Z,-0.49
2022-11-19T22:47:20.636Z,-0.50
2022-11-19T22:49:48.099Z,-0.50
2022-11-19T22:52:16.117Z,-0.49
2022-11-19T22:54:42.611Z,-0.52
2022-11-19T22:57:10.138Z,-0.55
2022-11-19T22:59:36.863Z,-0.56
2022-11-19T23:02:03.534Z,-0.56
2022-11-19T23:04:30.119Z,-0.58
2022-11-19T23:06:56.832Z,-0.60
2022-11-19T23:09:23.638Z,-0.59
2022-11-19T23:12:08.879Z,-0.59
2022-11-19T23:14:35.475Z,-0.60
2022-11-19T23:17:01.988Z,-0.64
2022-11-19T23:19:28.483Z,-0.66
2022-11-19T23:21:54.997Z,-0.66
2022-11-19T23:24:21.515Z,-0.68
2022-11-19T23:26:48.109Z,-0.67
2022-11-19T23:29:14.587Z,-0.68
2022-11-19T23:31:41.389Z,-0.71
2022-11-19T23:34:08.325Z,-0.68
2022-11-19T23:36:37.692Z,-0.72
2022-11-19T23:39:05.789Z,-0.76
2022-11-19T23:41:35.257Z,-0.79
2022-11-19T23:44:03.224Z,-0.79
2022-11-19T23:46:32.825Z,-0.80
2022-11-19T23:49:02.058Z,-0.81
2022-11-19T23:51:31.721Z,-0.83
2022-11-19T23:53:58.955Z,-0.85
2022-11-19T23:56:27.113Z,-0.86
2022-11-19T23:58:53.927Z,-0.86
